sensor_id;sensor_type;location;lat;lon;timestamp;temperature;humidity
11736;DHT22;5924;51.398;7.088;2023-07-16T00:00:57;18.80;99.90
11736;DHT22;5924;51.398;7.088;2023-07-16T00:03:23;18.80;99.90
11736;DHT22;5924;51.398;7.088;2023-07-16T00:05:51;18.80;99.90
11736;DHT22;5924;51.398;7.088;2023-07-16T00:08:17;18.70;99.90
11736;DHT22;5924;51.398;7.088;2023-07-16T00:10:43;18.70;99.90
11736;DHT22;5924;51.398;7.088;2023-07-16T00:13:08;18.70;99.90
11736;DHT22;5924;51.398;7.088;2023-07-16T00:15:34;18.60;99.90
11736;DHT22;5924;51.398;7.088;2023-07-16T00:18:00;18.60;99.90
11736;DHT22;5924;51.398;7.088;2023-07-16T00:20:25;18.60;99.90
11736;DHT22;5924;51.398;7.088;2023-07-16T00:22:51;18.60;99.90
11736;DHT22;5924;51.398;7.088;2023-07-16T00:25:17;18.50;99.90
11736;DHT22;5924;51.398;7.088;2023-07-16T00:27:43;18.50;99.90
11736;DHT22;5924;51.398;7.088;2023-07-16T00:30:09;18.50;99.90
11736;DHT22;5924;51.398;7.088;2023-07-16T00:32:35;18.50;99.90
11736;DHT22;5924;51.398;7.088;2023-07-16T00:35:03;18.50;99.90
11736;DHT22;5924;51.398;7.088;2023-07-16T00:37:30;18.60;99.90
11736;DHT22;5924;51.398;7.088;2023-07-16T00:39:55;18.60;99.90
11736;DHT22;5924;51.398;7.088;2023-07-16T00:42:21;18.60;99.90
11736;DHT22;5924;51.398;7.088;2023-07-16T00:44:47;18.60;99.90
11736;DHT22;5924;51.398;7.088;2023-07-16T00:47:12;18.70;99.90
11736;DHT22;5924;51.398;7.088;2023-07-16T00:49:38;18.60;99.90
11736;DHT22;5924;51.398;7.088;2023-07-16T00:52:05;18.60;99.90
11736;DHT22;5924;51.398;7.088;2023-07-16T00:54:33;18.50;99.90
11736;DHT22;5924;51.398;7.088;2023-07-16T00:56:59;18.40;99.90
11736;DHT22;5924;51.398;7.088;2023-07-16T00:59:25;18.30;99.90
11736;DHT22;5924;51.398;7.088;2023-07-16T01:01:50;18.20;99.90
11736;DHT22;5924;51.398;7.088;2023-07-16T01:04:16;18.10;99.90
11736;DHT22;5924;51.398;7.088;2023-07-16T01:06:47;18.10;99.90
11736;DHT22;5924;51.398;7.088;2023-07-16T01:09:19;18.00;99.90
11736;DHT22;5924;51.398;7.088;2023-07-16T01:11:46;17.90;99.90
11736;DHT22;5924;51.398;7.088;2023-07-16T01:14:13;17.90;99.90
11736;DHT22;5924;51.398;7.088;2023-07-16T01:16:41;17.80;99.90
11736;DHT22;5924;51.398;7.088;2023-07-16T01:19:06;17.70;99.90
11736;DHT22;5924;51.398;7.088;2023-07-16T01:27:09;17.60;99.90
11736;DHT22;5924;51.398;7.088;2023-07-16T01:29:47;17.50;99.90
11736;DHT22;5924;51.398;7.088;2023-07-16T01:32:15;17.50;99.90
11736;DHT22;5924;51.398;7.088;2023-07-16T01:34:42;17.40;99.90
11736;DHT22;5924;51.398;7.088;2023-07-16T01:37:09;17.40;99.90
11736;DHT22;5924;51.398;7.088;2023-07-16T01:39:35;17.30;99.90
11736;DHT22;5924;51.398;7.088;2023-07-16T01:42:02;17.20;99.90
11736;DHT22;5924;51.398;7.088;2023-07-16T01:44:28;17.20;99.90
11736;DHT22;5924;51.398;7.088;2023-07-16T01:47:13;17.20;99.90
11736;DHT22;5924;51.398;7.088;2023-07-16T01:49:40;17.10;99.90
11736;DHT22;5924;51.398;7.088;2023-07-16T01:52:07;17.10;99.90
11736;DHT22;5924;51.398;7.088;2023-07-16T01:54:34;17.10;99.90
11736;DHT22;5924;51.398;7.088;2023-07-16T01:57:00;17.10;99.90
11736;DHT22;5924;51.398;7.088;2023-07-16T01:59:26;17.10;99.90
11736;DHT22;5924;51.398;7.088;2023-07-16T02:01:51;17.10;99.90
11736;DHT22;5924;51.398;7.088;2023-07-16T02:04:17;17.20;99.90
11736;DHT22;5924;51.398;7.088;2023-07-16T02:06:43;17.30;99.90
11736;DHT22;5924;51.398;7.088;2023-07-16T02:09:09;17.40;99.90
11736;DHT22;5924;51.398;7.088;2023-07-16T02:11:35;17.50;99.90
11736;DHT22;5924;51.398;7.088;2023-07-16T02:14:01;17.60;99.90
11736;DHT22;5924;51.398;7.088;2023-07-16T02:16:27;17.70;99.90
11736;DHT22;5924;51.398;7.088;2023-07-16T02:18:52;17.80;99.90
11736;DHT22;5924;51.398;7.088;2023-07-16T02:21:18;17.90;99.90
11736;DHT22;5924;51.398;7.088;2023-07-16T02:23:44;17.90;99.90
11736;DHT22;5924;51.398;7.088;2023-07-16T02:26:09;17.90;99.90
11736;DHT22;5924;51.398;7.088;2023-07-16T02:28:35;17.40;99.90
11736;DHT22;5924;51.398;7.088;2023-07-16T02:31:01;18.00;99.90
11736;DHT22;5924;51.398;7.088;2023-07-16T02:33:27;18.00;99.90
11736;DHT22;5924;51.398;7.088;2023-07-16T02:35:53;18.00;99.90
11736;DHT22;5924;51.398;7.088;2023-07-16T02:38:18;18.00;99.90
11736;DHT22;5924;51.398;7.088;2023-07-16T02:40:45;18.00;99.90
11736;DHT22;5924;51.398;7.088;2023-07-16T02:43:11;18.10;99.90
11736;DHT22;5924;51.398;7.088;2023-07-16T02:45:37;18.10;99.90
11736;DHT22;5924;51.398;7.088;2023-07-16T02:48:04;18.10;99.90
11736;DHT22;5924;51.398;7.088;2023-07-16T02:50:30;18.20;99.90
11736;DHT22;5924;51.398;7.088;2023-07-16T02:52:55;18.20;99.90
11736;DHT22;5924;51.398;7.088;2023-07-16T02:55:21;18.20;99.90
11736;DHT22;5924;51.398;7.088;2023-07-16T02:57:46;18.20;99.90
11736;DHT22;5924;51.398;7.088;2023-07-16T03:00:12;18.20;99.90
11736;DHT22;5924;51.398;7.088;2023-07-16T03:02:38;18.10;99.90
11736;DHT22;5924;51.398;7.088;2023-07-16T03:05:04;18.10;99.90
11736;DHT22;5924;51.398;7.088;2023-07-16T03:07:30;17.90;99.90
11736;DHT22;5924;51.398;7.088;2023-07-16T03:09:55;17.80;99.90
11736;DHT22;5924;51.398;7.088;2023-07-16T03:12:21;17.70;99.90
11736;DHT22;5924;51.398;7.088;2023-07-16T03:14:47;17.60;99.90
11736;DHT22;5924;51.398;7.088;2023-07-16T03:17:12;17.50;99.90
11736;DHT22;5924;51.398;7.088;2023-07-16T03:19:38;17.40;99.90
11736;DHT22;5924;51.398;7.088;2023-07-16T03:22:04;17.30;99.90
11736;DHT22;5924;51.398;7.088;2023-07-16T03:24:30;17.30;99.90
11736;DHT22;5924;51.398;7.088;2023-07-16T03:26:55;17.30;99.90
11736;DHT22;5924;51.398;7.088;2023-07-16T03:29:21;17.20;99.90
11736;DHT22;5924;51.398;7.088;2023-07-16T03:31:46;17.20;99.90
11736;DHT22;5924;51.398;7.088;2023-07-16T03:34:12;17.20;99.90
11736;DHT22;5924;51.398;7.088;2023-07-16T03:36:38;17.10;99.90
11736;DHT22;5924;51.398;7.088;2023-07-16T03:39:03;17.00;99.90
11736;DHT22;5924;51.398;7.088;2023-07-16T03:41:29;17.00;99.90
11736;DHT22;5924;51.398;7.088;2023-07-16T03:43:54;17.00;99.90
11736;DHT22;5924;51.398;7.088;2023-07-16T03:46:20;17.00;99.90
11736;DHT22;5924;51.398;7.088;2023-07-16T03:48:46;17.00;99.90
11736;DHT22;5924;51.398;7.088;2023-07-16T03:51:11;16.90;99.90
11736;DHT22;5924;51.398;7.088;2023-07-16T03:53:37;16.90;99.90
11736;DHT22;5924;51.398;7.088;2023-07-16T03:56:03;16.90;99.90
11736;DHT22;5924;51.398;7.088;2023-07-16T03:58:29;16.80;99.90
11736;DHT22;5924;51.398;7.088;2023-07-16T04:00:55;16.80;99.90
11736;DHT22;5924;51.398;7.088;2023-07-16T04:03:21;16.90;99.90
11736;DHT22;5924;51.398;7.088;2023-07-16T04:05:46;16.80;99.90
11736;DHT22;5924;51.398;7.088;2023-07-16T04:08:12;16.80;99.90
11736;DHT22;5924;51.398;7.088;2023-07-16T04:10:38;16.80;99.90
11736;DHT22;5924;51.398;7.088;2023-07-16T04:13:04;16.80;99.90
11736;DHT22;5924;51.398;7.088;2023-07-16T04:15:30;16.80;99.90
11736;DHT22;5924;51.398;7.088;2023-07-16T04:17:55;16.80;99.90
11736;DHT22;5924;51.398;7.088;2023-07-16T04:20:21;16.80;99.90
11736;DHT22;5924;51.398;7.088;2023-07-16T04:22:47;16.80;99.90
11736;DHT22;5924;51.398;7.088;2023-07-16T04:25:12;16.80;99.90
11736;DHT22;5924;51.398;7.088;2023-07-16T04:27:40;16.80;99.90
11736;DHT22;5924;51.398;7.088;2023-07-16T04:30:07;16.80;99.90
11736;DHT22;5924;51.398;7.088;2023-07-16T04:32:33;16.80;99.90
11736;DHT22;5924;51.398;7.088;2023-07-16T04:34:58;16.80;99.90
11736;DHT22;5924;51.398;7.088;2023-07-16T04:37:24;18.40;99.90
11736;DHT22;5924;51.398;7.088;2023-07-16T04:39:50;16.70;99.90
11736;DHT22;5924;51.398;7.088;2023-07-16T04:42:16;16.70;99.90
11736;DHT22;5924;51.398;7.088;2023-07-16T04:44:42;16.70;99.90
11736;DHT22;5924;51.398;7.088;2023-07-16T04:47:08;16.70;99.90
11736;DHT22;5924;51.398;7.088;2023-07-16T04:49:34;16.70;99.90
11736;DHT22;5924;51.398;7.088;2023-07-16T04:52:00;16.70;99.90
11736;DHT22;5924;51.398;7.088;2023-07-16T04:54:26;16.70;99.90
11736;DHT22;5924;51.398;7.088;2023-07-16T04:56:51;16.70;99.90
11736;DHT22;5924;51.398;7.088;2023-07-16T04:59:17;16.70;99.90
11736;DHT22;5924;51.398;7.088;2023-07-16T05:01:43;16.70;99.90
11736;DHT22;5924;51.398;7.088;2023-07-16T05:04:08;16.60;99.90
11736;DHT22;5924;51.398;7.088;2023-07-16T05:06:34;16.70;99.90
11736;DHT22;5924;51.398;7.088;2023-07-16T05:08:59;16.70;99.90
11736;DHT22;5924;51.398;7.088;2023-07-16T05:11:25;16.60;99.90
11736;DHT22;5924;51.398;7.088;2023-07-16T05:13:51;16.60;99.90
11736;DHT22;5924;51.398;7.088;2023-07-16T05:16:17;16.60;99.90
11736;DHT22;5924;51.398;7.088;2023-07-16T05:18:42;16.60;99.90
11736;DHT22;5924;51.398;7.088;2023-07-16T05:21:08;16.70;99.90
11736;DHT22;5924;51.398;7.088;2023-07-16T05:23:34;16.70;99.90
11736;DHT22;5924;51.398;7.088;2023-07-16T05:25:59;16.70;99.90
11736;DHT22;5924;51.398;7.088;2023-07-16T05:28:25;16.70;99.90
11736;DHT22;5924;51.398;7.088;2023-07-16T05:31:03;16.80;99.90
11736;DHT22;5924;51.398;7.088;2023-07-16T05:33:28;16.80;99.90
11736;DHT22;5924;51.398;7.088;2023-07-16T05:35:54;16.90;99.90
11736;DHT22;5924;51.398;7.088;2023-07-16T05:38:20;16.90;99.90
11736;DHT22;5924;51.398;7.088;2023-07-16T05:40:46;17.00;99.90
11736;DHT22;5924;51.398;7.088;2023-07-16T05:43:12;17.00;99.90
11736;DHT22;5924;51.398;7.088;2023-07-16T05:45:38;17.10;99.90
11736;DHT22;5924;51.398;7.088;2023-07-16T05:48:04;17.10;99.90
11736;DHT22;5924;51.398;7.088;2023-07-16T05:50:30;17.10;99.90
11736;DHT22;5924;51.398;7.088;2023-07-16T05:52:55;17.10;99.90
11736;DHT22;5924;51.398;7.088;2023-07-16T05:55:21;17.20;99.90
11736;DHT22;5924;51.398;7.088;2023-07-16T05:57:47;17.20;99.90
11736;DHT22;5924;51.398;7.088;2023-07-16T06:00:13;17.20;99.90
11736;DHT22;5924;51.398;7.088;2023-07-16T06:02:39;17.30;99.90
11736;DHT22;5924;51.398;7.088;2023-07-16T06:05:05;17.30;99.90
11736;DHT22;5924;51.398;7.088;2023-07-16T06:07:31;17.30;99.90
11736;DHT22;5924;51.398;7.088;2023-07-16T06:09:58;17.40;99.90
11736;DHT22;5924;51.398;7.088;2023-07-16T06:12:23;17.40;99.90
11736;DHT22;5924;51.398;7.088;2023-07-16T06:14:50;17.40;99.90
11736;DHT22;5924;51.398;7.088;2023-07-16T06:17:15;17.40;99.90
11736;DHT22;5924;51.398;7.088;2023-07-16T06:19:41;17.50;99.90
11736;DHT22;5924;51.398;7.088;2023-07-16T06:22:06;18.90;99.90
11736;DHT22;5924;51.398;7.088;2023-07-16T06:24:34;17.50;99.90
11736;DHT22;5924;51.398;7.088;2023-07-16T06:27:00;17.60;99.90
11736;DHT22;5924;51.398;7.088;2023-07-16T06:29:26;17.60;99.90
11736;DHT22;5924;51.398;7.088;2023-07-16T06:31:56;17.60;99.90
11736;DHT22;5924;51.398;7.088;2023-07-16T06:34:23;17.70;99.90
11736;DHT22;5924;51.398;7.088;2023-07-16T06:36:48;17.70;99.90
11736;DHT22;5924;51.398;7.088;2023-07-16T06:39:14;17.70;99.90
11736;DHT22;5924;51.398;7.088;2023-07-16T06:41:40;17.80;99.90
11736;DHT22;5924;51.398;7.088;2023-07-16T06:44:06;17.80;99.90
11736;DHT22;5924;51.398;7.088;2023-07-16T06:46:31;17.80;99.90
11736;DHT22;5924;51.398;7.088;2023-07-16T06:48:57;17.80;99.90
11736;DHT22;5924;51.398;7.088;2023-07-16T06:51:22;17.80;99.90
11736;DHT22;5924;51.398;7.088;2023-07-16T06:53:48;17.90;99.90
11736;DHT22;5924;51.398;7.088;2023-07-16T06:56:14;17.90;99.90
11736;DHT22;5924;51.398;7.088;2023-07-16T06:58:40;17.90;99.90
11736;DHT22;5924;51.398;7.088;2023-07-16T07:01:06;17.90;99.90
11736;DHT22;5924;51.398;7.088;2023-07-16T07:03:31;18.00;99.90
11736;DHT22;5924;51.398;7.088;2023-07-16T07:06:01;18.00;99.90
11736;DHT22;5924;51.398;7.088;2023-07-16T07:08:27;18.00;99.90
11736;DHT22;5924;51.398;7.088;2023-07-16T07:10:53;18.10;99.90
11736;DHT22;5924;51.398;7.088;2023-07-16T07:13:19;18.10;99.90
11736;DHT22;5924;51.398;7.088;2023-07-16T07:15:44;18.10;99.90
11736;DHT22;5924;51.398;7.088;2023-07-16T07:18:10;18.20;99.90
11736;DHT22;5924;51.398;7.088;2023-07-16T07:20:36;18.20;99.90
11736;DHT22;5924;51.398;7.088;2023-07-16T07:23:01;18.30;99.90
11736;DHT22;5924;51.398;7.088;2023-07-16T07:25:29;18.30;99.90
11736;DHT22;5924;51.398;7.088;2023-07-16T07:27:54;18.30;99.90
11736;DHT22;5924;51.398;7.088;2023-07-16T07:30:20;18.40;99.90
11736;DHT22;5924;51.398;7.088;2023-07-16T07:32:46;18.50;99.90
11736;DHT22;5924;51.398;7.088;2023-07-16T07:35:11;18.50;99.90
11736;DHT22;5924;51.398;7.088;2023-07-16T07:37:37;18.50;99.90
11736;DHT22;5924;51.398;7.088;2023-07-16T07:40:03;18.60;99.90
11736;DHT22;5924;51.398;7.088;2023-07-16T07:42:29;18.70;99.90
11736;DHT22;5924;51.398;7.088;2023-07-16T07:44:55;18.70;99.90
11736;DHT22;5924;51.398;7.088;2023-07-16T07:47:21;18.80;99.90
11736;DHT22;5924;51.398;7.088;2023-07-16T07:49:47;18.80;99.90
11736;DHT22;5924;51.398;7.088;2023-07-16T07:52:12;18.90;99.90
11736;DHT22;5924;51.398;7.088;2023-07-16T07:54:38;19.00;99.90
11736;DHT22;5924;51.398;7.088;2023-07-16T07:57:04;19.10;99.90
11736;DHT22;5924;51.398;7.088;2023-07-16T07:59:30;19.20;99.90
11736;DHT22;5924;51.398;7.088;2023-07-16T08:01:57;19.30;99.90
11736;DHT22;5924;51.398;7.088;2023-07-16T08:04:24;19.40;99.90
11736;DHT22;5924;51.398;7.088;2023-07-16T08:06:50;19.50;99.90
11736;DHT22;5924;51.398;7.088;2023-07-16T08:09:16;19.50;99.90
11736;DHT22;5924;51.398;7.088;2023-07-16T08:11:42;19.60;99.90
11736;DHT22;5924;51.398;7.088;2023-07-16T08:14:07;19.80;99.90
11736;DHT22;5924;51.398;7.088;2023-07-16T08:16:33;19.80;99.90
11736;DHT22;5924;51.398;7.088;2023-07-16T08:18:59;19.90;99.90
11736;DHT22;5924;51.398;7.088;2023-07-16T08:21:24;20.00;99.90
11736;DHT22;5924;51.398;7.088;2023-07-16T08:23:51;20.10;99.90
11736;DHT22;5924;51.398;7.088;2023-07-16T08:26:17;20.20;99.90
11736;DHT22;5924;51.398;7.088;2023-07-16T08:28:43;20.40;99.90
11736;DHT22;5924;51.398;7.088;2023-07-16T08:31:12;20.50;99.90
11736;DHT22;5924;51.398;7.088;2023-07-16T08:33:40;20.60;99.90
11736;DHT22;5924;51.398;7.088;2023-07-16T08:36:06;20.70;99.90
11736;DHT22;5924;51.398;7.088;2023-07-16T08:38:32;20.70;99.90
11736;DHT22;5924;51.398;7.088;2023-07-16T08:41:00;20.90;99.90
11736;DHT22;5924;51.398;7.088;2023-07-16T08:43:26;21.00;99.90
11736;DHT22;5924;51.398;7.088;2023-07-16T08:45:53;21.10;99.90
11736;DHT22;5924;51.398;7.088;2023-07-16T08:48:18;21.20;99.90
11736;DHT22;5924;51.398;7.088;2023-07-16T08:50:47;21.30;99.90
11736;DHT22;5924;51.398;7.088;2023-07-16T08:53:15;21.30;99.90
11736;DHT22;5924;51.398;7.088;2023-07-16T08:55:44;21.30;99.90
11736;DHT22;5924;51.398;7.088;2023-07-16T08:58:11;21.40;99.90
11736;DHT22;5924;51.398;7.088;2023-07-16T09:00:37;21.40;99.90
11736;DHT22;5924;51.398;7.088;2023-07-16T09:03:03;21.40;99.90
11736;DHT22;5924;51.398;7.088;2023-07-16T09:05:29;21.40;99.90
11736;DHT22;5924;51.398;7.088;2023-07-16T09:07:55;21.40;99.90
11736;DHT22;5924;51.398;7.088;2023-07-16T09:10:21;21.40;99.90
11736;DHT22;5924;51.398;7.088;2023-07-16T09:12:46;21.20;99.90
11736;DHT22;5924;51.398;7.088;2023-07-16T09:15:17;21.20;99.90
11736;DHT22;5924;51.398;7.088;2023-07-16T09:17:47;21.20;99.90
11736;DHT22;5924;51.398;7.088;2023-07-16T09:20:15;21.50;99.90
11736;DHT22;5924;51.398;7.088;2023-07-16T09:22:41;21.40;99.90
11736;DHT22;5924;51.398;7.088;2023-07-16T09:25:07;21.20;99.90
11736;DHT22;5924;51.398;7.088;2023-07-16T09:27:33;21.10;99.90
11736;DHT22;5924;51.398;7.088;2023-07-16T09:29:59;21.20;99.90
11736;DHT22;5924;51.398;7.088;2023-07-16T09:32:38;21.20;99.90
11736;DHT22;5924;51.398;7.088;2023-07-16T09:35:14;21.40;99.90
11736;DHT22;5924;51.398;7.088;2023-07-16T09:37:41;21.70;99.90
11736;DHT22;5924;51.398;7.088;2023-07-16T09:40:08;21.70;99.90
11736;DHT22;5924;51.398;7.088;2023-07-16T09:42:42;21.80;99.90
11736;DHT22;5924;51.398;7.088;2023-07-16T09:45:13;21.70;99.90
11736;DHT22;5924;51.398;7.088;2023-07-16T09:47:42;21.90;99.90
11736;DHT22;5924;51.398;7.088;2023-07-16T09:50:08;22.20;99.90
11736;DHT22;5924;51.398;7.088;2023-07-16T09:52:34;22.60;99.90
11736;DHT22;5924;51.398;7.088;2023-07-16T09:55:02;22.90;99.90
11736;DHT22;5924;51.398;7.088;2023-07-16T09:57:32;23.10;99.90
11736;DHT22;5924;51.398;7.088;2023-07-16T10:00:03;23.40;99.90
11736;DHT22;5924;51.398;7.088;2023-07-16T10:02:34;23.40;99.90
11736;DHT22;5924;51.398;7.088;2023-07-16T10:05:11;23.10;99.90
11736;DHT22;5924;51.398;7.088;2023-07-16T10:07:37;23.00;99.90
11736;DHT22;5924;51.398;7.088;2023-07-16T10:10:10;22.80;99.90
11736;DHT22;5924;51.398;7.088;2023-07-16T10:12:37;23.20;99.90
11736;DHT22;5924;51.398;7.088;2023-07-16T10:15:04;23.50;99.90
11736;DHT22;5924;51.398;7.088;2023-07-16T10:17:31;23.40;99.90
11736;DHT22;5924;51.398;7.088;2023-07-16T10:20:09;23.30;99.90
11736;DHT22;5924;51.398;7.088;2023-07-16T10:25:03;23.20;99.90
11736;DHT22;5924;51.398;7.088;2023-07-16T10:27:30;23.40;99.90
11736;DHT22;5924;51.398;7.088;2023-07-16T10:29:56;23.50;99.90
11736;DHT22;5924;51.398;7.088;2023-07-16T10:32:26;23.50;99.90
11736;DHT22;5924;51.398;7.088;2023-07-16T10:34:52;23.30;99.90
11736;DHT22;5924;51.398;7.088;2023-07-16T10:37:18;23.00;99.90
11736;DHT22;5924;51.398;7.088;2023-07-16T10:39:48;23.60;99.90
11736;DHT22;5924;51.398;7.088;2023-07-16T10:42:16;23.50;99.90
11736;DHT22;5924;51.398;7.088;2023-07-16T10:44:42;23.40;99.90
11736;DHT22;5924;51.398;7.088;2023-07-16T10:47:09;22.90;99.90
11736;DHT22;5924;51.398;7.088;2023-07-16T10:49:35;22.60;99.90
11736;DHT22;5924;51.398;7.088;2023-07-16T10:52:01;22.30;99.90
11736;DHT22;5924;51.398;7.088;2023-07-16T10:54:27;22.40;99.90
11736;DHT22;5924;51.398;7.088;2023-07-16T10:56:53;22.70;99.90
11736;DHT22;5924;51.398;7.088;2023-07-16T10:59:19;22.70;99.90
11736;DHT22;5924;51.398;7.088;2023-07-16T11:01:45;23.20;99.90
11736;DHT22;5924;51.398;7.088;2023-07-16T11:04:11;23.70;99.90
11736;DHT22;5924;51.398;7.088;2023-07-16T11:06:36;24.00;99.90
11736;DHT22;5924;51.398;7.088;2023-07-16T11:09:09;24.30;99.90
11736;DHT22;5924;51.398;7.088;2023-07-16T11:11:34;24.70;99.90
11736;DHT22;5924;51.398;7.088;2023-07-16T11:14:06;24.70;99.90
11736;DHT22;5924;51.398;7.088;2023-07-16T11:16:34;24.60;99.90
11736;DHT22;5924;51.398;7.088;2023-07-16T11:19:04;24.60;99.90
11736;DHT22;5924;51.398;7.088;2023-07-16T11:21:33;24.80;99.90
11736;DHT22;5924;51.398;7.088;2023-07-16T11:24:14;25.10;99.90
11736;DHT22;5924;51.398;7.088;2023-07-16T11:26:53;25.20;99.90
11736;DHT22;5924;51.398;7.088;2023-07-16T11:29:19;25.50;99.90
11736;DHT22;5924;51.398;7.088;2023-07-16T11:31:52;25.50;99.90
11736;DHT22;5924;51.398;7.088;2023-07-16T11:34:20;25.50;99.90
11736;DHT22;5924;51.398;7.088;2023-07-16T11:36:47;25.50;99.90
11736;DHT22;5924;51.398;7.088;2023-07-16T11:39:12;25.30;99.90
11736;DHT22;5924;51.398;7.088;2023-07-16T11:41:38;25.10;99.90
11736;DHT22;5924;51.398;7.088;2023-07-16T11:44:04;24.60;99.90
11736;DHT22;5924;51.398;7.088;2023-07-16T11:46:33;24.30;99.90
11736;DHT22;5924;51.398;7.088;2023-07-16T11:49:02;24.20;99.90
11736;DHT22;5924;51.398;7.088;2023-07-16T11:51:29;24.10;99.90
11736;DHT22;5924;51.398;7.088;2023-07-16T11:53:56;24.00;99.90
11736;DHT22;5924;51.398;7.088;2023-07-16T11:56:23;23.90;99.90
11736;DHT22;5924;51.398;7.088;2023-07-16T11:58:49;23.60;99.90
11736;DHT22;5924;51.398;7.088;2023-07-16T12:01:15;23.60;99.90
11736;DHT22;5924;51.398;7.088;2023-07-16T12:03:40;23.90;99.90
11736;DHT22;5924;51.398;7.088;2023-07-16T12:06:07;24.40;99.90
11736;DHT22;5924;51.398;7.088;2023-07-16T12:08:33;24.80;99.90
11736;DHT22;5924;51.398;7.088;2023-07-16T12:10:59;25.10;99.90
11736;DHT22;5924;51.398;7.088;2023-07-16T12:13:24;25.00;99.90
11736;DHT22;5924;51.398;7.088;2023-07-16T12:15:50;24.60;99.90
11736;DHT22;5924;51.398;7.088;2023-07-16T12:18:16;24.40;99.90
11736;DHT22;5924;51.398;7.088;2023-07-16T12:20:41;24.50;99.90
11736;DHT22;5924;51.398;7.088;2023-07-16T12:23:07;25.10;99.90
11736;DHT22;5924;51.398;7.088;2023-07-16T12:25:33;25.30;99.90
11736;DHT22;5924;51.398;7.088;2023-07-16T12:28:00;25.40;99.90
11736;DHT22;5924;51.398;7.088;2023-07-16T12:30:27;25.10;99.90
11736;DHT22;5924;51.398;7.088;2023-07-16T12:32:53;24.70;99.90
11736;DHT22;5924;51.398;7.088;2023-07-16T12:35:18;24.60;99.90
11736;DHT22;5924;51.398;7.088;2023-07-16T12:37:44;24.60;99.90
11736;DHT22;5924;51.398;7.088;2023-07-16T12:40:10;24.50;99.90
11736;DHT22;5924;51.398;7.088;2023-07-16T12:42:35;24.30;99.90
11736;DHT22;5924;51.398;7.088;2023-07-16T12:45:02;24.30;99.90
11736;DHT22;5924;51.398;7.088;2023-07-16T12:47:27;24.30;99.90
11736;DHT22;5924;51.398;7.088;2023-07-16T12:49:53;24.40;99.90
11736;DHT22;5924;51.398;7.088;2023-07-16T12:52:19;24.50;99.90
11736;DHT22;5924;51.398;7.088;2023-07-16T12:54:44;24.70;99.90
11736;DHT22;5924;51.398;7.088;2023-07-16T12:57:11;24.90;99.90
11736;DHT22;5924;51.398;7.088;2023-07-16T12:59:37;24.90;99.90
11736;DHT22;5924;51.398;7.088;2023-07-16T13:02:03;25.00;99.90
11736;DHT22;5924;51.398;7.088;2023-07-16T13:04:29;25.00;99.90
11736;DHT22;5924;51.398;7.088;2023-07-16T13:06:54;25.10;99.90
11736;DHT22;5924;51.398;7.088;2023-07-16T13:09:20;25.40;99.90
11736;DHT22;5924;51.398;7.088;2023-07-16T13:11:45;26.20;99.90
11736;DHT22;5924;51.398;7.088;2023-07-16T13:14:11;26.30;99.70
11736;DHT22;5924;51.398;7.088;2023-07-16T13:16:37;26.00;99.90
11736;DHT22;5924;51.398;7.088;2023-07-16T13:19:02;26.00;99.90
11736;DHT22;5924;51.398;7.088;2023-07-16T13:21:28;26.50;99.90
11736;DHT22;5924;51.398;7.088;2023-07-16T13:23:53;27.10;99.90
11736;DHT22;5924;51.398;7.088;2023-07-16T13:26:19;27.50;99.90
11736;DHT22;5924;51.398;7.088;2023-07-16T13:28:45;28.00;99.80
11736;DHT22;5924;51.398;7.088;2023-07-16T13:31:11;28.00;98.30
11736;DHT22;5924;51.398;7.088;2023-07-16T13:33:36;27.70;98.20
11736;DHT22;5924;51.398;7.088;2023-07-16T13:36:02;27.30;98.80
11736;DHT22;5924;51.398;7.088;2023-07-16T13:38:30;27.00;98.50
11736;DHT22;5924;51.398;7.088;2023-07-16T13:40:56;27.10;97.80
11736;DHT22;5924;51.398;7.088;2023-07-16T13:43:22;26.90;98.10
11736;DHT22;5924;51.398;7.088;2023-07-16T13:45:47;26.80;98.20
11736;DHT22;5924;51.398;7.088;2023-07-16T13:48:13;26.50;98.70
11736;DHT22;5924;51.398;7.088;2023-07-16T13:50:39;26.10;99.00
11736;DHT22;5924;51.398;7.088;2023-07-16T13:53:04;25.70;98.90
11736;DHT22;5924;51.398;7.088;2023-07-16T13:55:30;26.00;99.90
11736;DHT22;5924;51.398;7.088;2023-07-16T13:57:56;26.40;99.90
11736;DHT22;5924;51.398;7.088;2023-07-16T14:00:22;26.40;98.80
11736;DHT22;5924;51.398;7.088;2023-07-16T14:02:48;26.50;97.00
11736;DHT22;5924;51.398;7.088;2023-07-16T14:05:13;25.90;98.30
11736;DHT22;5924;51.398;7.088;2023-07-16T14:07:39;25.40;99.60
11736;DHT22;5924;51.398;7.088;2023-07-16T14:10:05;25.10;99.90
11736;DHT22;5924;51.398;7.088;2023-07-16T14:12:31;25.30;99.90
11736;DHT22;5924;51.398;7.088;2023-07-16T14:14:57;25.90;99.90
11736;DHT22;5924;51.398;7.088;2023-07-16T14:17:22;25.90;99.90
11736;DHT22;5924;51.398;7.088;2023-07-16T14:19:49;25.60;99.90
11736;DHT22;5924;51.398;7.088;2023-07-16T14:22:15;25.10;99.90
11736;DHT22;5924;51.398;7.088;2023-07-16T14:24:41;24.70;99.90
11736;DHT22;5924;51.398;7.088;2023-07-16T14:27:08;24.70;99.90
11736;DHT22;5924;51.398;7.088;2023-07-16T14:29:34;25.60;99.90
11736;DHT22;5924;51.398;7.088;2023-07-16T14:32:00;26.60;98.40
11736;DHT22;5924;51.398;7.088;2023-07-16T14:34:26;26.80;97.40
11736;DHT22;5924;51.398;7.088;2023-07-16T14:36:53;26.30;97.70
11736;DHT22;5924;51.398;7.088;2023-07-16T14:39:18;25.90;99.50
11736;DHT22;5924;51.398;7.088;2023-07-16T14:41:44;25.60;99.90
11736;DHT22;5924;51.398;7.088;2023-07-16T14:44:10;25.30;98.90
11736;DHT22;5924;51.398;7.088;2023-07-16T14:46:36;25.30;99.90
11736;DHT22;5924;51.398;7.088;2023-07-16T14:49:03;25.70;99.90
11736;DHT22;5924;51.398;7.088;2023-07-16T14:51:29;26.10;99.90
11736;DHT22;5924;51.398;7.088;2023-07-16T14:53:55;26.20;99.20
11736;DHT22;5924;51.398;7.088;2023-07-16T14:56:21;26.00;99.20
11736;DHT22;5924;51.398;7.088;2023-07-16T14:58:47;26.40;99.80
11736;DHT22;5924;51.398;7.088;2023-07-16T15:01:13;26.40;99.40
11736;DHT22;5924;51.398;7.088;2023-07-16T15:03:39;26.40;99.90
11736;DHT22;5924;51.398;7.088;2023-07-16T15:06:06;26.30;99.90
11736;DHT22;5924;51.398;7.088;2023-07-16T15:08:32;26.20;99.90
11736;DHT22;5924;51.398;7.088;2023-07-16T15:10:59;26.60;99.90
11736;DHT22;5924;51.398;7.088;2023-07-16T15:13:25;27.30;99.90
11736;DHT22;5924;51.398;7.088;2023-07-16T15:15:52;27.90;96.60
11736;DHT22;5924;51.398;7.088;2023-07-16T15:18:19;28.00;96.50
11736;DHT22;5924;51.398;7.088;2023-07-16T15:20:46;27.50;95.60
11736;DHT22;5924;51.398;7.088;2023-07-16T15:23:12;26.70;96.60
11736;DHT22;5924;51.398;7.088;2023-07-16T15:25:41;26.00;97.50
11736;DHT22;5924;51.398;7.088;2023-07-16T15:28:08;25.40;98.00
11736;DHT22;5924;51.398;7.088;2023-07-16T15:30:34;24.70;97.80
11736;DHT22;5924;51.398;7.088;2023-07-16T15:33:00;24.20;98.40
11736;DHT22;5924;51.398;7.088;2023-07-16T15:35:26;23.70;98.80
11736;DHT22;5924;51.398;7.088;2023-07-16T15:37:51;23.30;99.40
11736;DHT22;5924;51.398;7.088;2023-07-16T15:40:17;23.00;99.90
11736;DHT22;5924;51.398;7.088;2023-07-16T15:42:43;22.80;99.90
11736;DHT22;5924;51.398;7.088;2023-07-16T15:45:10;22.90;99.90
11736;DHT22;5924;51.398;7.088;2023-07-16T15:47:38;23.30;99.90